sensor_id;sensor_type;location;lat;lon;timestamp;P1;durP1;ratioP1;P2;durP2;ratioP2
67726;SDS011;54525;55.680;37.540;2022-08-21T11:07:11;9.15;;;5.30;;
67726;SDS011;54525;55.680;37.540;2022-08-21T11:09:45;12.38;;;5.13;;
67726;SDS011;54525;55.680;37.540;2022-08-21T11:12:19;7.93;;;3.90;;
67726;SDS011;54525;55.680;37.540;2022-08-21T11:17:55;7.70;;;4.60;;
67726;SDS011;54525;55.680;37.540;2022-08-21T11:23:14;10.90;;;4.07;;
67726;SDS011;54525;55.680;37.540;2022-08-21T11:25:47;9.88;;;3.40;;
67726;SDS011;54525;55.680;37.540;2022-08-21T11:28:28;14.38;;;4.75;;
67726;SDS011;54525;55.680;37.540;2022-08-21T11:41:40;16.77;;;4.45;;
67726;SDS011;54525;55.680;37.540;2022-08-21T11:52:13;12.35;;;6.32;;
67726;SDS011;54525;55.680;37.540;2022-08-21T11:54:51;11.07;;;5.03;;
67726;SDS011;54525;55.680;37.540;2022-08-21T11:57:27;16.05;;;7.40;;
67726;SDS011;54525;55.680;37.540;2022-08-21T12:02:43;17.42;;;9.13;;
67726;SDS011;54525;55.680;37.540;2022-08-21T12:05:22;20.63;;;10.73;;
67726;SDS011;54525;55.680;37.540;2022-08-21T12:10:59;18.80;;;11.20;;
67726;SDS011;54525;55.680;37.540;2022-08-21T12:13:31;18.55;;;12.05;;
67726;SDS011;54525;55.680;37.540;2022-08-21T12:16:12;23.67;;;13.38;;
67726;SDS011;54525;55.680;37.540;2022-08-21T12:18:41;21.15;;;11.95;;
67726;SDS011;54525;55.680;37.540;2022-08-21T12:21:19;21.77;;;12.43;;
67726;SDS011;54525;55.680;37.540;2022-08-21T15:09:48;17.95;;;3.78;;
67726;SDS011;54525;55.680;37.540;2022-08-21T15:12:13;14.60;;;3.70;;
67726;SDS011;54525;55.680;37.540;2022-08-21T15:14:40;17.63;;;4.80;;
67726;SDS011;54525;55.680;37.540;2022-08-21T15:17:10;13.25;;;3.85;;
67726;SDS011;54525;55.680;37.540;2022-08-21T15:19:37;15.27;;;4.47;;
67726;SDS011;54525;55.680;37.540;2022-08-21T15:22:03;15.60;;;5.28;;
67726;SDS011;54525;55.680;37.540;2022-08-21T15:24:29;20.55;;;5.60;;
67726;SDS011;54525;55.680;37.540;2022-08-21T15:26:55;11.35;;;4.03;;
67726;SDS011;54525;55.680;37.540;2022-08-21T15:29:22;20.08;;;4.90;;
67726;SDS011;54525;55.680;37.540;2022-08-21T15:31:52;19.58;;;4.80;;
67726;SDS011;54525;55.680;37.540;2022-08-21T15:34:20;17.40;;;4.47;;
67726;SDS011;54525;55.680;37.540;2022-08-21T15:36:46;16.75;;;4.50;;
67726;SDS011;54525;55.680;37.540;2022-08-21T15:39:12;20.50;;;6.45;;
67726;SDS011;54525;55.680;37.540;2022-08-21T15:41:38;12.15;;;4.40;;
67726;SDS011;54525;55.680;37.540;2022-08-21T15:44:04;9.13;;;3.92;;
67726;SDS011;54525;55.680;37.540;2022-08-21T15:46:30;12.77;;;4.10;;
67726;SDS011;54525;55.680;37.540;2022-08-21T15:48:57;10.82;;;2.85;;
67726;SDS011;54525;55.680;37.540;2022-08-21T15:51:23;17.27;;;3.60;;
67726;SDS011;54525;55.680;37.540;2022-08-21T15:53:48;10.27;;;2.50;;
67726;SDS011;54525;55.680;37.540;2022-08-21T15:56:21;7.82;;;2.15;;
67726;SDS011;54525;55.680;37.540;2022-08-21T15:58:59;11.40;;;2.38;;
67726;SDS011;54525;55.680;37.540;2022-08-21T16:01:27;7.65;;;1.98;;
67726;SDS011;54525;55.680;37.540;2022-08-21T16:03:53;6.97;;;2.38;;
67726;SDS011;54525;55.680;37.540;2022-08-21T16:06:20;12.60;;;2.75;;
67726;SDS011;54525;55.680;37.540;2022-08-21T16:08:46;12.15;;;1.83;;
67726;SDS011;54525;55.680;37.540;2022-08-21T16:11:12;13.00;;;2.35;;
67726;SDS011;54525;55.680;37.540;2022-08-21T16:13:40;4.97;;;2.20;;
67726;SDS011;54525;55.680;37.540;2022-08-21T16:16:16;10.73;;;1.77;;
67726;SDS011;54525;55.680;37.540;2022-08-21T16:18:45;5.45;;;2.05;;
67726;SDS011;54525;55.680;37.540;2022-08-21T16:21:12;2.40;;;1.52;;
67726;SDS011;54525;55.680;37.540;2022-08-21T16:23:38;7.78;;;2.00;;
67726;SDS011;54525;55.680;37.540;2022-08-21T16:26:05;6.80;;;2.00;;
67726;SDS011;54525;55.680;37.540;2022-08-21T16:28:33;7.80;;;2.00;;
67726;SDS011;54525;55.680;37.540;2022-08-21T16:31:01;5.45;;;1.90;;
67726;SDS011;54525;55.680;37.540;2022-08-21T16:33:35;5.78;;;2.15;;
67726;SDS011;54525;55.680;37.540;2022-08-21T16:36:07;10.10;;;2.42;;
67726;SDS011;54525;55.680;37.540;2022-08-21T16:38:34;3.47;;;1.75;;
67726;SDS011;54525;55.680;37.540;2022-08-21T16:41:03;6.20;;;2.05;;
67726;SDS011;54525;55.680;37.540;2022-08-21T16:43:31;6.75;;;2.80;;
67726;SDS011;54525;55.680;37.540;2022-08-21T16:45:57;9.77;;;2.45;;
67726;SDS011;54525;55.680;37.540;2022-08-21T16:48:25;5.20;;;2.65;;
67726;SDS011;54525;55.680;37.540;2022-08-21T16:50:51;5.30;;;2.20;;
67726;SDS011;54525;55.680;37.540;2022-08-21T20:29:34;11.35;;;4.97;;
67726;SDS011;54525;55.680;37.540;2022-08-21T20:34:25;11.05;;;3.42;;
67726;SDS011;54525;55.680;37.540;2022-08-21T20:36:51;7.75;;;3.17;;
67726;SDS011;54525;55.680;37.540;2022-08-21T20:39:17;5.78;;;3.80;;
67726;SDS011;54525;55.680;37.540;2022-08-21T20:41:44;11.25;;;3.55;;
67726;SDS011;54525;55.680;37.540;2022-08-21T20:44:10;5.00;;;3.38;;
67726;SDS011;54525;55.680;37.540;2022-08-21T20:46:38;9.80;;;3.50;;
67726;SDS011;54525;55.680;37.540;2022-08-21T20:49:04;9.15;;;3.88;;
67726;SDS011;54525;55.680;37.540;2022-08-21T20:51:34;12.38;;;3.28;;
67726;SDS011;54525;55.680;37.540;2022-08-21T21:07:17;5.00;;;2.95;;
67726;SDS011;54525;55.680;37.540;2022-08-21T21:09:48;4.43;;;2.72;;
67726;SDS011;54525;55.680;37.540;2022-08-21T21:12:30;7.05;;;2.63;;
67726;SDS011;54525;55.680;37.540;2022-08-21T21:15:08;8.50;;;2.78;;
67726;SDS011;54525;55.680;37.540;2022-08-21T21:17:44;6.18;;;2.97;;
67726;SDS011;54525;55.680;37.540;2022-08-21T21:21:02;3.35;;;2.15;;
67726;SDS011;54525;55.680;37.540;2022-08-21T21:23:22;3.50;;;2.10;;
67726;SDS011;54525;55.680;37.540;2022-08-21T21:28:49;7.22;;;2.90;;
67726;SDS011;54525;55.680;37.540;2022-08-21T21:31:21;7.25;;;3.00;;
67726;SDS011;54525;55.680;37.540;2022-08-21T21:33:50;4.82;;;2.78;;
67726;SDS011;54525;55.680;37.540;2022-08-21T21:36:24;6.80;;;2.70;;
67726;SDS011;54525;55.680;37.540;2022-08-21T21:41:35;5.60;;;2.60;;
67726;SDS011;54525;55.680;37.540;2022-08-21T21:44:38;9.07;;;3.08;;
67726;SDS011;54525;55.680;37.540;2022-08-21T22:00:46;4.95;;;2.50;;
67726;SDS011;54525;55.680;37.540;2022-08-21T22:05:58;6.57;;;2.60;;
67726;SDS011;54525;55.680;37.540;2022-08-21T22:11:19;6.28;;;2.80;;
67726;SDS011;54525;55.680;37.540;2022-08-21T22:14:09;7.38;;;2.95;;
67726;SDS011;54525;55.680;37.540;2022-08-21T22:16:40;5.82;;;2.78;;
67726;SDS011;54525;55.680;37.540;2022-08-21T22:19:12;8.10;;;3.58;;
67726;SDS011;54525;55.680;37.540;2022-08-21T22:22:00;6.85;;;3.33;;
67726;SDS011;54525;55.680;37.540;2022-08-21T22:24:34;7.28;;;3.75;;
67726;SDS011;54525;55.680;37.540;2022-08-21T22:27:48;8.40;;;2.85;;
67726;SDS011;54525;55.680;37.540;2022-08-21T22:29:56;6.88;;;3.15;;
67726;SDS011;54525;55.680;37.540;2022-08-21T22:32:27;5.70;;;3.25;;
67726;SDS011;54525;55.680;37.540;2022-08-21T22:37:37;7.70;;;4.00;;
67726;SDS011;54525;55.680;37.540;2022-08-21T22:40:06;6.75;;;2.97;;
67726;SDS011;54525;55.680;37.540;2022-08-21T22:42:33;12.13;;;3.20;;
67726;SDS011;54525;55.680;37.540;2022-08-21T22:45:00;5.07;;;2.97;;
67726;SDS011;54525;55.680;37.540;2022-08-21T22:47:34;7.10;;;3.58;;
67726;SDS011;54525;55.680;37.540;2022-08-21T22:50:16;7.38;;;3.90;;
67726;SDS011;54525;55.680;37.540;2022-08-21T22:52:53;9.77;;;3.83;;
67726;SDS011;54525;55.680;37.540;2022-08-21T22:56:05;11.82;;;3.88;;
67726;SDS011;54525;55.680;37.540;2022-08-21T22:58:18;8.50;;;3.58;;
67726;SDS011;54525;55.680;37.540;2022-08-21T23:06:28;14.30;;;4.05;;
67726;SDS011;54525;55.680;37.540;2022-08-21T23:08:57;8.30;;;3.85;;
67726;SDS011;54525;55.680;37.540;2022-08-21T23:11:37;6.43;;;3.95;;
67726;SDS011;54525;55.680;37.540;2022-08-21T23:14:06;6.05;;;3.80;;
67726;SDS011;54525;55.680;37.540;2022-08-21T23:24:50;6.85;;;3.50;;
67726;SDS011;54525;55.680;37.540;2022-08-21T23:30:14;10.57;;;4.35;;
67726;SDS011;54525;55.680;37.540;2022-08-21T23:33:16;12.23;;;3.90;;
67726;SDS011;54525;55.680;37.540;2022-08-21T23:35:51;11.00;;;4.22;;
67726;SDS011;54525;55.680;37.540;2022-08-21T23:39:17;9.25;;;3.55;;
67726;SDS011;54525;55.680;37.540;2022-08-21T23:47:40;9.45;;;3.85;;
67726;SDS011;54525;55.680;37.540;2022-08-21T23:53:36;9.35;;;3.58;;
67726;SDS011;54525;55.680;37.540;2022-08-21T23:59:01;7.85;;;3.63;;
